Time;durP1;ratioP1;P1;durP2;ratioP2;P2;SDS_P1;SDS_P2;PMS_P1;PMS_P2;Temp;Humidity;BMP_temperature;BMP_pressure;BME280_temperature;BME280_humidity;BME280_pressure;Samples;Min_cycle;Max_cycle;Signal;HPM_P1;HPM_P2
2024/04/07 00:02:31;;;;;;;0.20;0.20;;;;;;;13.49;100.00;75260.03;4940420;28;20028;-86
2024/04/07 00:05:27;;;;;;;0.20;0.20;;;;;;;13.58;100.00;75270.19;4947437;29;20023;-87
2024/04/07 00:08:25;;;;;;;0.20;0.20;;;;;;;13.56;100.00;75279.50;4941865;29;20024;-86
2024/04/07 00:11:43;;;;;;;0.20;0.20;;;;;;;13.26;100.00;75235.25;4923393;29;20040;-87
2024/04/07 00:14:40;;;;;;;0.20;0.20;;;;;;;13.31;100.00;75241.25;4950684;29;20040;-87
2024/04/07 00:18:11;;;;;;;0.20;0.20;;;;;;;13.14;100.00;75226.44;4902436;28;20036;-86
2024/04/07 00:21:27;;;;;;;0.20;0.20;;;;;;;13.37;100.00;75248.44;4886164;29;20019;-87
2024/04/07 00:24:37;;;;;;;0.20;0.20;;;;;;;13.29;100.00;75238.84;4849596;29;20054;-87
2024/04/07 00:28:11;;;;;;;0.20;0.20;;;;;;;13.10;100.00;75220.06;4836291;29;20027;-87
2024/04/07 00:32:06;;;;;;;0.20;0.20;;;;;;;13.10;100.00;75220.06;4834459;29;20046;-86
2024/04/07 00:35:37;;;;;;;0.20;0.20;;;;;;;13.42;100.00;75254.41;4848582;29;20043;-87
2024/04/07 00:38:30;;;;;;;0.20;0.20;;;;;;;13.39;100.00;75250.81;4828075;29;20077;-87
2024/04/07 00:41:59;;;;;;;0.20;0.20;;;;;;;13.13;100.00;75219.69;4864195;29;20037;-86
2024/04/07 00:45:08;;;;;;;0.20;0.20;;;;;;;13.34;100.00;75244.84;4904021;29;20054;-86
2024/04/07 00:47:44;;;;;;;0.20;0.20;;;;;;;13.23;100.00;75231.69;4898860;29;20060;-86
2024/04/07 00:50:12;;;;;;;0.20;0.20;;;;;;;13.32;100.00;75242.47;4864724;29;20097;-86
2024/04/07 00:53:28;;;;;;;0.20;0.20;;;;;;;13.32;100.00;75243.06;4880801;29;20077;-87
2024/04/07 00:57:12;;;;;;;0.20;0.20;;;;;;;13.29;100.00;75241.63;4888415;29;20069;-87
2024/04/07 01:00:27;;;;;;;0.20;0.20;;;;;;;13.26;100.00;75240.81;4899926;29;20037;-87
2024/04/07 01:03:43;;;;;;;0.20;0.20;;;;;;;13.15;100.00;75228.22;4886412;29;20017;-87
2024/04/07 01:09:41;;;;;;;0.20;0.20;;;;;;;13.06;100.00;75212.50;4899162;29;20078;-86
2024/04/07 01:13:27;;;;;;;0.20;0.20;;;;;;;13.36;100.00;75247.22;4871121;29;20049;-86
2024/04/07 01:16:42;;;;;;;0.20;0.20;;;;;;;12.92;100.00;75195.75;4885538;29;20041;-86
2024/04/07 01:23:04;;;;;;;0.20;0.20;;;;;;;12.95;100.00;75201.53;4905055;29;20032;-86
2024/04/07 01:26:23;;;;;;;0.20;0.20;;;;;;;13.04;100.00;75210.09;4881209;29;20049;-87
2024/04/07 01:29:11;;;;;;;0.20;0.20;;;;;;;12.96;100.00;75199.94;4892196;29;20036;-87
2024/04/07 01:32:13;;;;;;;0.20;0.20;;;;;;;12.82;100.00;75183.78;4904918;29;20021;-86
2024/04/07 01:37:17;;;;;;;0.20;0.20;;;;;;;12.98;100.00;75202.31;4930849;27;20105;-85
2024/04/07 01:39:44;;;;;;;0.20;0.20;;;;;;;12.87;100.00;75184.22;4917933;29;20048;-86
2024/04/07 01:42:12;;;;;;;0.20;0.20;;;;;;;12.92;100.00;75195.75;4935917;29;20046;-86
2024/04/07 01:44:45;;;;;;;0.20;0.20;;;;;;;12.70;100.00;75169.44;4929848;29;20044;-85
2024/04/07 01:47:52;;;;;;;0.20;0.20;;;;;;;12.84;100.00;75184.00;4908472;29;20028;-87
2024/04/07 01:51:03;;;;;;;0.20;0.20;;;;;;;12.74;100.00;75174.22;4900755;29;20052;-86
2024/04/07 01:53:45;;;;;;;0.20;0.20;;;;;;;12.89;100.00;75188.78;4891453;29;20029;-86
2024/04/07 01:56:11;;;;;;;0.20;0.20;;;;;;;12.87;100.00;75192.53;4894696;29;20100;-86
2024/04/07 02:02:28;;;;;;;0.20;0.20;;;;;;;12.84;100.00;75186.19;4903843;29;20052;-86
2024/04/07 02:05:32;;;;;;;0.30;0.30;;;;;;;12.82;100.00;75189.91;4889270;29;20037;-87
2024/04/07 02:08:36;;;;;;;0.20;0.20;;;;;;;13.02;100.00;75207.13;4843375;29;20593;-87
2024/04/07 02:11:35;;;;;;;0.20;0.20;;;;;;;13.04;100.00;75212.28;4899971;29;20052;-87
2024/04/07 02:14:57;;;;;;;0.20;0.20;;;;;;;13.14;100.00;75226.44;4906306;29;20116;-87
2024/04/07 02:18:15;;;;;;;0.20;0.20;;;;;;;13.11;100.00;75221.28;4900895;29;20044;-86
2024/04/07 02:21:24;;;;;;;0.20;0.20;;;;;;;13.11;100.00;75217.91;4881027;29;20085;-86
2024/04/07 02:28:00;;;;;;;0.28;0.28;;;;;;;12.93;100.00;75196.94;4897347;29;20089;-86
2024/04/07 02:34:30;;;;;;;0.20;0.20;;;;;;;13.08;100.00;75214.88;4903212;29;20051;-87
2024/04/07 02:37:32;;;;;;;0.20;0.20;;;;;;;12.85;100.00;75187.38;4898050;29;20077;-86
2024/04/07 02:40:36;;;;;;;0.20;0.20;;;;;;;13.04;100.00;75210.09;4906541;29;20068;-86
2024/04/07 02:43:59;;;;;;;0.20;0.20;;;;;;;13.05;100.00;75213.50;4934637;28;20059;-87
2024/04/07 02:50:33;;;;;;;0.20;0.20;;;;;;;12.91;100.00;75194.56;4922097;29;20067;-86
2024/04/07 02:53:48;;;;;;;0.20;0.20;;;;;;;13.07;100.00;75216.47;4921044;29;20040;-88
2024/04/07 02:56:37;;;;;;;0.20;0.20;;;;;;;12.74;100.00;75174.81;4907143;29;20067;-85
2024/04/07 03:06:34;;;;;;;0.20;0.20;;;;;;;12.73;100.00;75173.00;4940961;28;20556;-86
2024/04/07 03:09:27;;;;;;;0.20;0.20;;;;;;;12.76;100.00;75177.19;4936963;29;20100;-86
2024/04/07 03:12:45;;;;;;;0.20;0.20;;;;;;;12.99;100.00;75203.53;4892733;29;20035;-87
2024/04/07 03:15:40;;;;;;;0.20;0.20;;;;;;;12.78;100.00;75179.00;4945200;29;20030;-87
2024/04/07 03:18:42;;;;;;;0.20;0.20;;;;;;;12.90;100.00;75187.81;4880599;29;20042;-87
2024/04/07 03:21:54;;;;;;;0.20;0.20;;;;;;;12.72;100.00;75169.03;4940941;29;20024;-87
2024/04/07 03:24:31;;;;;;;0.20;0.20;;;;;;;12.63;100.00;75158.88;4940475;28;20032;-87
2024/04/07 03:27:45;;;;;;;0.20;0.20;;;;;;;12.90;100.00;75192.75;4940694;28;20044;-86
2024/04/07 03:30:36;;;;;;;;;;;;;;;12.85;100.00;75185.19;4924201;28;20039;-86
2024/04/07 03:34:10;;;;;;;0.20;0.20;;;;;;;12.83;100.00;75184.97;4940104;29;19895;-87
2024/04/07 03:44:25;;;;;;;0.20;0.20;;;;;;;12.31;100.00;75121.19;4952454;29;20079;-87
2024/04/07 03:47:34;;;;;;;0.20;0.20;;;;;;;12.43;100.00;75138.31;4940559;28;20052;-87
2024/04/07 03:50:52;;;;;;;0.20;0.20;;;;;;;12.54;100.00;75151.47;4938927;29;20287;-86
2024/04/07 03:54:04;;;;;;;0.20;0.20;;;;;;;12.33;100.00;75126.34;4911639;28;20040;-87
2024/04/07 03:57:22;;;;;;;0.20;0.20;;;;;;;12.21;100.00;75114.78;4942341;28;20550;-87
2024/04/07 04:00:47;;;;;;;0.20;0.20;;;;;;;12.53;100.00;75153.06;4922095;29;20072;-86
2024/04/07 04:03:49;;;;;;;0.20;0.20;;;;;;;12.33;100.00;75129.13;4848638;29;20046;-86
2024/04/07 04:06:24;;;;;;;0.20;0.20;;;;;;;12.30;100.00;75126.16;4846823;29;20081;-85
2024/04/07 04:09:16;;;;;;;0.20;0.20;;;;;;;12.50;100.00;75146.69;4904211;29;20048;-87
2024/04/07 04:12:06;;;;;;;0.20;0.20;;;;;;;12.44;100.00;75139.50;4917548;29;20041;-86
2024/04/07 04:17:35;;;;;;;0.25;0.25;;;;;;;12.47;100.00;75143.09;5038453;23;20062;-87
2024/04/07 04:23:49;;;;;;;0.20;0.20;;;;;;;12.62;100.00;75157.06;4959796;28;20130;-86
2024/04/07 04:26:45;;;;;;;0.20;0.20;;;;;;;12.40;100.00;75139.66;4959320;28;20008;-86
2024/04/07 04:30:01;;;;;;;0.20;0.20;;;;;;;12.63;100.00;75161.06;4943089;28;20165;-87
2024/04/07 04:33:20;;;;;;;0.20;0.20;;;;;;;12.52;100.00;75149.09;4958384;29;20044;-87
2024/04/07 04:36:25;;;;;;;0.20;0.20;;;;;;;12.44;100.00;75141.69;4943294;29;20028;-87
2024/04/07 04:39:51;;;;;;;0.20;0.20;;;;;;;12.76;100.00;75176.59;4958012;28;20036;-87
2024/04/07 04:43:32;;;;;;;0.28;0.28;;;;;;;12.56;100.00;75151.09;4939668;28;20072;-86
2024/04/07 04:46:38;;;;;;;0.20;0.20;;;;;;;12.62;100.00;75160.44;4940705;28;20040;-86
2024/04/07 04:50:19;;;;;;;0.20;0.20;;;;;;;12.82;100.00;75183.78;4938410;29;20019;-86
2024/04/07 04:52:50;;;;;;;0.20;0.20;;;;;;;12.97;100.00;75201.13;4954160;29;20048;-86
2024/04/07 04:55:45;;;;;;;0.20;0.20;;;;;;;13.00;100.00;75199.78;4955617;28;20019;-88
2024/04/07 04:59:09;;;;;;;0.20;0.20;;;;;;;13.28;100.00;75234.88;4912994;29;20027;-86
2024/04/07 05:02:22;;;;;;;0.20;0.20;;;;;;;14.10;100.00;75334.63;4885147;29;20040;-87
2024/04/07 05:05:29;;;;;;;0.20;0.20;;;;;;;14.50;100.00;75375.81;4854074;29;20050;-86
2024/04/07 05:08:59;;;;;;;0.20;0.20;;;;;;;14.68;100.00;75402.34;4855216;29;20029;-87
2024/04/07 05:12:16;;;;;;;0.20;0.20;;;;;;;15.54;100.00;75503.00;4853094;29;20049;-87
2024/04/07 05:15:25;;;;;;;0.20;0.20;;;;;;;16.31;97.53;75591.38;4783896;29;20027;-88
2024/04/07 05:53:46;;;;;;;0.20;0.20;;;;;;;21.10;68.40;76147.00;4958970;28;20057;-87
2024/04/07 05:56:12;;;;;;;0.20;0.20;;;;;;;21.10;67.96;76147.59;4958144;28;20130;-84
2024/04/07 05:58:39;;;;;;;0.20;0.20;;;;;;;21.02;68.59;76143.59;4933617;29;20027;-86
2024/04/07 06:01:04;;;;;;;0.20;0.20;;;;;;;20.86;69.64;76124.94;4936907;28;20035;-87
2024/04/07 06:03:30;;;;;;;0.20;0.20;;;;;;;21.40;67.60;76188.13;4930826;29;20037;-86
2024/04/07 06:05:55;;;;;;;0.20;0.20;;;;;;;20.99;68.85;76140.00;4939114;29;20050;-86
2024/04/07 06:08:21;;;;;;;0.20;0.20;;;;;;;21.03;68.33;76144.19;4939167;29;20020;-86
2024/04/07 06:10:46;;;;;;;0.20;0.20;;;;;;;20.80;69.42;76120.56;4935806;29;20019;-86
2024/04/07 06:13:12;;;;;;;0.20;0.20;;;;;;;22.48;62.92;76315.72;4924907;29;20035;-86
2024/04/07 06:15:37;;;;;;;0.20;0.20;;;;;;;21.31;67.80;76171.69;4935036;29;20051;-85
2024/04/07 06:18:04;;;;;;;0.20;0.20;;;;;;;22.70;62.07;76333.75;4947744;29;20453;-85
2024/04/07 06:20:29;;;;;;;0.20;0.20;;;;;;;22.71;60.93;76342.81;4945276;29;20023;-85
2024/04/07 06:22:54;;;;;;;0.20;0.20;;;;;;;22.81;60.77;76354.25;4936012;28;20081;-85
2024/04/07 06:25:20;;;;;;;0.20;0.20;;;;;;;22.80;60.07;76350.22;4915984;29;20396;-85
2024/04/07 06:27:46;;;;;;;0.20;0.20;;;;;;;21.70;62.53;76223.63;4937306;29;20040;-85
2024/04/07 06:30:12;;;;;;;0.20;0.20;;;;;;;22.35;61.77;76297.25;4933104;29;20028;-86
2024/04/07 06:32:37;;;;;;;0.20;0.20;;;;;;;21.29;66.50;76172.66;4919103;29;20058;-85
2024/04/07 06:35:07;;;;;;;0.20;0.20;;;;;;;21.59;67.61;76207.59;4927875;29;20077;-87
2024/04/07 06:57:44;;;;;;;0.20;0.20;;;;;;;22.36;62.83;76296.22;4955098;29;20059;-84
2024/04/07 07:00:12;;;;;;;0.20;0.20;;;;;;;21.94;65.84;76252.53;4934947;29;20078;-85
2024/04/07 07:02:37;;;;;;;0.20;0.20;;;;;;;21.92;63.95;76250.09;4948831;29;20038;-86
2024/04/07 07:05:03;;;;;;;0.20;0.20;;;;;;;22.64;63.40;76331.56;4927824;29;20039;-85
2024/04/07 07:07:28;;;;;;;0.20;0.20;;;;;;;23.29;60.01;76408.66;4936461;29;20525;-85
2024/04/07 07:09:54;;;;;;;0.20;0.20;;;;;;;23.53;58.47;76436.94;4935246;29;20110;-86
2024/04/07 07:12:19;;;;;;;0.20;0.20;;;;;;;23.22;58.38;76400.22;4935721;29;20031;-86
2024/04/07 07:14:44;;;;;;;0.20;0.20;;;;;;;22.53;59.26;76315.50;4952286;29;20034;-85
2024/04/07 07:17:10;;;;;;;0.20;0.20;;;;;;;22.72;60.40;76341.19;4935592;29;20027;-85
2024/04/07 07:19:35;;;;;;;0.20;0.20;;;;;;;22.56;61.00;76322.53;4935534;29;20502;-85
2024/04/07 07:22:01;;;;;;;0.20;0.20;;;;;;;22.82;61.03;76358.88;4936392;29;20042;-85
2024/04/07 07:24:26;;;;;;;0.20;0.20;;;;;;;23.04;58.25;76375.72;4920142;29;20035;-85
2024/04/07 07:26:52;;;;;;;0.20;0.20;;;;;;;23.49;58.05;76429.31;4917151;29;20036;-85
2024/04/07 07:29:17;;;;;;;0.20;0.20;;;;;;;22.86;60.65;76355.25;4916651;29;20024;-86
2024/04/07 07:31:42;;;;;;;0.20;0.20;;;;;;;22.76;61.21;76348.84;4915402;29;20031;-85
2024/04/07 07:34:08;;;;;;;0.20;0.20;;;;;;;22.95;58.70;76368.91;4915934;29;20503;-84
2024/04/07 07:36:33;;;;;;;0.20;0.20;;;;;;;22.29;62.34;76293.44;4917170;29;20428;-84
2024/04/07 07:38:59;;;;;;;0.20;0.20;;;;;;;23.00;59.17;76374.31;4932553;29;20023;-84
2024/04/07 07:41:25;;;;;;;0.10;0.10;;;;;;;23.12;58.06;76391.63;4916606;29;20107;-85
2024/04/07 07:43:50;;;;;;;0.15;0.15;;;;;;;23.00;58.00;76377.75;4915911;29;20023;-85
2024/04/07 07:46:16;;;;;;;0.20;0.20;;;;;;;22.58;60.77;76327.16;4915549;29;20079;-86
2024/04/07 07:48:41;;;;;;;0.20;0.20;;;;;;;23.57;57.64;76435.53;4916993;29;20155;-85
2024/04/07 07:51:11;;;;;;;0.20;0.20;;;;;;;24.27;56.11;76524.31;4915553;29;20072;-85
2024/04/07 07:53:37;;;;;;;0.15;0.15;;;;;;;24.20;54.90;76513.06;4932785;29;20495;-84
2024/04/07 07:56:05;;;;;;;0.10;0.10;;;;;;;23.71;55.69;76458.06;4915133;29;20035;-85
2024/04/07 07:58:31;;;;;;;0.20;0.20;;;;;;;23.75;55.50;76460.03;4931724;29;20071;-83
2024/04/07 08:00:56;;;;;;;0.20;0.20;;;;;;;23.55;57.26;76438.78;4932160;29;20098;-84
2024/04/07 08:03:25;;;;;;;0.20;0.20;;;;;;;24.10;55.91;76501.63;4901548;29;20111;-84
2024/04/07 08:05:50;;;;;;;0.10;0.10;;;;;;;24.39;54.04;76535.97;4916305;29;20039;-84
2024/04/07 08:08:16;;;;;;;0.10;0.10;;;;;;;24.70;53.32;76574.97;4915700;29;20058;-84
2024/04/07 08:10:41;;;;;;;0.17;0.17;;;;;;;24.96;52.83;76609.13;4914864;29;20126;-84
2024/04/07 08:13:09;;;;;;;0.20;0.20;;;;;;;25.51;49.75;76674.25;4915963;29;20027;-84
2024/04/07 08:15:35;;;;;;;0.10;0.10;;;;;;;25.52;50.37;76672.66;4917529;29;20030;-84
2024/04/07 08:18:00;;;;;;;0.10;0.10;;;;;;;26.00;49.61;76726.53;4916047;29;20059;-84
2024/04/07 08:20:28;;;;;;;0.15;0.15;;;;;;;25.49;49.33;76669.03;4915701;29;20084;-84
2024/04/07 08:22:54;;;;;;;0.10;0.10;;;;;;;25.90;50.23;76716.69;4915834;29;20103;-84
2024/04/07 08:25:19;;;;;;;0.20;0.20;;;;;;;26.20;49.07;76749.44;4916256;29;20563;-84
2024/04/07 08:27:44;;;;;;;0.10;0.10;;;;;;;25.46;50.58;76667.63;4916060;29;20036;-84
2024/04/07 08:30:10;;;;;;;0.10;0.10;;;;;;;26.46;48.07;76777.38;4915354;29;20024;-84
2024/04/07 08:32:36;;;;;;;0.10;0.10;;;;;;;27.01;47.23;76843.16;4913819;29;20103;-84
2024/04/07 08:35:01;;;;;;;0.17;0.17;;;;;;;27.31;46.76;76881.59;4934774;29;20566;-84
2024/04/07 08:37:27;;;;;;;0.20;0.20;;;;;;;25.76;48.40;76694.75;4934573;29;20115;-84
2024/04/07 08:39:52;;;;;;;0.20;0.20;;;;;;;25.53;49.56;76670.44;4917209;29;20396;-84
2024/04/07 08:42:20;;;;;;;0.15;0.15;;;;;;;26.23;48.11;76753.06;4924841;29;20126;-84
2024/04/07 08:44:47;;;;;;;0.20;0.20;;;;;;;25.96;49.28;76724.53;4943318;29;20044;-83
2024/04/07 08:47:13;;;;;;;0.10;0.10;;;;;;;25.25;49.80;76642.94;4899767;29;20086;-85
2024/04/07 08:49:42;;;;;;;0.10;0.10;;;;;;;26.04;48.49;76734.16;4918142;29;20036;-84
2024/04/07 08:52:09;;;;;;;0.20;0.20;;;;;;;24.99;51.30;76606.50;4917587;29;20500;-84
2024/04/07 08:54:36;;;;;;;0.10;0.10;;;;;;;24.41;54.51;76538.41;4915441;29;20086;-85
2024/04/07 08:57:08;;;;;;;0.10;0.10;;;;;;;25.41;51.09;76656.56;4916530;29;20119;-84
2024/04/07 08:59:34;;;;;;;0.20;0.20;;;;;;;25.21;51.52;76638.09;4916316;29;20031;-84
2024/04/07 09:02:03;;;;;;;0.17;0.17;;;;;;;24.41;53.43;76537.81;4913348;29;20036;-84
2024/04/07 09:04:32;;;;;;;0.15;0.15;;;;;;;24.40;53.44;76539.44;4915169;29;20559;-86
2024/04/07 09:07:05;;;;;;;0.10;0.10;;;;;;;24.13;56.36;76510.91;4915855;29;20036;-85
2024/04/07 09:09:31;;;;;;;0.10;0.10;;;;;;;24.27;55.67;76521.50;4899208;29;20516;-84
2024/04/07 09:11:58;;;;;;;0.20;0.20;;;;;;;24.47;55.30;76545.63;4915736;29;20032;-84
2024/04/07 09:14:25;;;;;;;0.20;0.20;;;;;;;24.74;54.46;76576.97;4914663;29;20032;-85
2024/04/07 09:17:06;;;;;;;0.10;0.10;;;;;;;25.05;54.09;76617.16;4916579;29;20511;-83
2024/04/07 09:19:32;;;;;;;0.20;0.20;;;;;;;24.94;53.46;76601.06;4915405;29;20032;-83
2024/04/07 09:21:58;;;;;;;0.20;0.20;;;;;;;24.69;54.75;76576.59;4916442;29;20400;-84
2024/04/07 09:24:27;;;;;;;0.10;0.10;;;;;;;25.15;52.61;76622.38;4916819;29;20032;-83
2024/04/07 09:26:53;;;;;;;0.10;0.10;;;;;;;25.15;53.00;76625.22;4917103;29;20063;-83
2024/04/07 09:29:18;;;;;;;0.20;0.20;;;;;;;25.17;52.23;76627.63;4911066;29;20044;-84
2024/04/07 09:31:44;;;;;;;0.20;0.20;;;;;;;24.96;52.55;76602.88;4911726;29;20051;-84
2024/04/07 09:34:10;;;;;;;0.20;0.20;;;;;;;24.61;53.75;76566.94;4922124;29;20071;-84
2024/04/07 09:36:36;;;;;;;0.15;0.15;;;;;;;25.22;53.64;76634.25;4917111;29;20082;-84
2024/04/07 09:39:03;;;;;;;0.10;0.10;;;;;;;25.26;53.68;76639.06;4916411;29;20036;-84
2024/04/07 09:41:30;;;;;;;0.10;0.10;;;;;;;25.28;52.84;76643.72;4916233;29;20036;-84
2024/04/07 09:43:56;;;;;;;0.15;0.15;;;;;;;25.45;53.43;76661.38;4914753;29;20567;-84
2024/04/07 09:46:23;;;;;;;0.10;0.10;;;;;;;25.15;54.31;76625.22;4910227;29;20123;-84
2024/04/07 09:48:58;;;;;;;0.17;0.17;;;;;;;24.60;54.53;76560.09;4910222;29;20564;-85
2024/04/07 09:51:30;;;;;;;0.15;0.15;;;;;;;25.10;54.05;76619.19;4914144;29;20028;-84
2024/04/07 09:54:03;;;;;;;0.10;0.10;;;;;;;25.73;52.02;76691.13;4914275;29;20119;-84
2024/04/07 09:56:32;;;;;;;0.10;0.10;;;;;;;26.41;50.75;76769.09;4914572;29;20024;-83
2024/04/07 09:59:03;;;;;;;0.15;0.15;;;;;;;25.42;53.39;76657.75;4914304;29;20039;-85
2024/04/07 10:01:29;;;;;;;0.10;0.10;;;;;;;26.04;51.75;76731.34;4913875;29;20024;-84
2024/04/07 10:03:59;;;;;;;0.20;0.20;;;;;;;25.68;52.05;76687.91;4916049;29;20499;-85
2024/04/07 10:06:26;;;;;;;0.13;0.13;;;;;;;25.00;53.90;76610.53;4914341;29;20024;-84
2024/04/07 10:08:52;;;;;;;0.20;0.20;;;;;;;25.29;53.46;76637.00;4913772;29;20036;-84
2024/04/07 10:11:18;;;;;;;0.10;0.10;;;;;;;24.90;54.95;76604.75;4911907;29;20040;-83
2024/04/07 10:13:45;;;;;;;0.10;0.10;;;;;;;24.15;57.23;76513.31;4915498;29;20392;-84
2024/04/07 10:16:13;;;;;;;0.17;0.17;;;;;;;25.50;54.32;76663.97;4913074;29;20032;-84
2024/04/07 10:18:40;;;;;;;0.20;0.20;;;;;;;25.12;54.07;76615.94;4909392;29;20111;-84
2024/04/07 10:21:07;;;;;;;0.20;0.20;;;;;;;24.41;56.01;76537.81;4911841;29;20089;-82
2024/04/07 10:23:37;;;;;;;0.10;0.10;;;;;;;24.48;56.24;76552.47;4915168;29;20032;-83
2024/04/07 10:26:04;;;;;;;0.10;0.10;;;;;;;25.20;54.65;76634.06;4927386;29;20165;-84
2024/04/07 10:28:56;;;;;;;0.20;0.20;;;;;;;23.66;59.34;76449.81;4921918;29;20043;-84
2024/04/07 10:31:23;;;;;;;0.20;0.20;;;;;;;23.81;59.52;76464.47;4914931;29;20055;-83
2024/04/07 10:33:53;;;;;;;0.10;0.10;;;;;;;24.68;57.04;76569.75;4918665;29;20047;-83
2024/04/07 10:36:22;;;;;;;0.20;0.20;;;;;;;24.05;58.39;76493.38;4906555;29;20063;-83
2024/04/07 10:38:52;;;;;;;0.10;0.10;;;;;;;24.98;56.09;76605.28;4896685;29;20044;-83
2024/04/07 10:41:28;;;;;;;0.10;0.10;;;;;;;24.91;55.65;76603.09;4889680;29;20053;-84
2024/04/07 10:43:55;;;;;;;0.20;0.20;;;;;;;26.00;52.71;76731.59;4890415;29;20028;-83
2024/04/07 10:46:22;;;;;;;0.10;0.10;;;;;;;25.32;54.21;76645.72;4906615;29;20425;-84
2024/04/07 10:48:49;;;;;;;0.20;0.20;;;;;;;25.59;53.81;76677.66;4897534;29;20173;-83
2024/04/07 10:51:18;;;;;;;0.10;0.10;;;;;;;25.11;54.07;76620.38;4909944;29;20055;-83
2024/04/07 10:53:44;;;;;;;0.10;0.10;;;;;;;24.94;55.74;76601.06;4910223;29;20123;-84
2024/04/07 10:56:10;;;;;;;0.10;0.10;;;;;;;24.58;56.50;76554.84;4911243;29;20120;-83
2024/04/07 10:58:37;;;;;;;0.10;0.10;;;;;;;23.90;57.98;76486.59;4909899;29;20035;-82
2024/04/07 11:01:06;;;;;;;0.20;0.20;;;;;;;24.09;58.30;76499.81;4909903;29;20055;-83
2024/04/07 11:03:36;;;;;;;0.10;0.10;;;;;;;23.37;61.76;76414.84;4909595;29;20028;-83
2024/04/07 11:06:03;;;;;;;0.20;0.20;;;;;;;22.99;62.97;76373.72;4910233;29;20044;-83
2024/04/07 11:08:29;;;;;;;0.10;0.10;;;;;;;23.62;61.78;76447.19;4913393;29;20032;-83
2024/04/07 11:10:54;;;;;;;0.10;0.10;;;;;;;23.77;59.74;76465.91;4912937;29;20056;-84
2024/04/07 11:13:21;;;;;;;0.20;0.20;;;;;;;23.50;60.21;76427.72;4910916;29;20087;-83
2024/04/07 11:15:49;;;;;;;0.20;0.20;;;;;;;24.16;58.71;76513.91;4910077;29;20043;-83
2024/04/07 11:18:16;;;;;;;0.20;0.20;;;;;;;23.80;60.38;76471.72;4910082;29;20047;-84
2024/04/07 11:20:42;;;;;;;0.10;0.10;;;;;;;24.15;58.85;76509.88;4896428;29;20029;-83
2024/04/07 11:23:09;;;;;;;0.15;0.15;;;;;;;23.67;60.62;76456.66;4891566;29;20733;-82
2024/04/07 11:25:35;;;;;;;0.20;0.20;;;;;;;24.23;58.09;76514.44;4890977;29;20040;-83
2024/04/07 11:28:02;;;;;;;0.13;0.13;;;;;;;24.42;57.54;76542.44;4891417;29;20037;-83
2024/04/07 11:30:36;;;;;;;0.10;0.10;;;;;;;24.13;58.79;76505.25;4908724;29;20119;-83
2024/04/07 11:33:06;;;;;;;0.10;0.10;;;;;;;23.56;60.08;76439.97;4909297;29;20060;-83
2024/04/07 11:35:33;;;;;;;0.10;0.10;;;;;;;23.76;60.80;76466.91;4910037;29;20570;-84
2024/04/07 11:38:01;;;;;;;0.20;0.20;;;;;;;23.69;60.88;76458.47;4904346;29;20052;-84
2024/04/07 11:40:27;;;;;;;0.20;0.20;;;;;;;23.25;62.91;76404.44;4891120;29;20040;-84
2024/04/07 11:42:53;;;;;;;0.20;0.20;;;;;;;23.93;60.47;76481.75;4892775;29;20233;-84
2024/04/07 11:45:20;;;;;;;0.15;0.15;;;;;;;23.52;61.15;76432.94;4893954;29;20689;-84
2024/04/07 11:47:46;;;;;;;0.10;0.10;;;;;;;23.32;62.97;76412.25;4910695;29;20499;-84
2024/04/07 11:50:11;;;;;;;0.10;0.10;;;;;;;23.13;65.00;76392.81;4916501;29;20030;-84
2024/04/07 11:52:37;;;;;;;0.20;0.20;;;;;;;24.15;61.04;76513.31;4912680;29;20012;-85
2024/04/07 11:55:03;;;;;;;0.10;0.10;;;;;;;23.94;61.47;76488.59;4912146;29;20050;-84
2024/04/07 11:57:29;;;;;;;0.10;0.10;;;;;;;24.04;60.74;76500.66;4929329;29;20034;-83
2024/04/07 11:59:54;;;;;;;0.10;0.10;;;;;;;24.18;59.74;76513.47;4906390;29;20407;-83
2024/04/07 12:02:20;;;;;;;0.20;0.20;;;;;;;23.44;61.73;76423.91;4911066;29;20100;-83
2024/04/07 12:04:45;;;;;;;0.20;0.20;;;;;;;24.08;59.13;76504.28;4907682;29;20040;-83
2024/04/07 12:07:11;;;;;;;0.10;0.10;;;;;;;23.86;59.03;76476.13;4907844;29;20167;-83
2024/04/07 12:09:37;;;;;;;0.20;0.20;;;;;;;23.65;58.73;76450.81;4927086;29;20036;-84
2024/04/07 12:12:02;;;;;;;0.17;0.17;;;;;;;24.37;58.17;76533.56;4920004;29;20028;-83
2024/04/07 12:14:29;;;;;;;0.20;0.20;;;;;;;24.21;57.34;76511.44;4931659;29;20038;-83
2024/04/07 12:16:54;;;;;;;0.20;0.20;;;;;;;24.51;54.61;76552.69;4934836;29;20156;-83
2024/04/07 12:19:20;;;;;;;0.10;0.10;;;;;;;23.67;56.84;76450.44;4914987;29;20068;-83
2024/04/07 12:21:45;;;;;;;0.10;0.10;;;;;;;23.56;57.99;76443.41;4930523;29;20039;-83
2024/04/07 12:24:11;;;;;;;0.20;0.20;;;;;;;23.84;57.52;76470.91;4934718;29;20031;-83
2024/04/07 12:26:37;;;;;;;0.20;0.20;;;;;;;23.91;57.52;76484.97;4915713;29;20119;-83
2024/04/07 12:29:03;;;;;;;0.20;0.20;;;;;;;24.08;57.45;76501.44;4932271;29;20035;-84
2024/04/07 12:31:28;;;;;;;0.20;0.20;;;;;;;24.19;55.27;76517.53;4931810;29;20031;-83
2024/04/07 12:33:54;;;;;;;0.13;0.13;;;;;;;23.63;57.21;76454.06;4909802;29;20054;-83
2024/04/07 12:36:19;;;;;;;0.20;0.20;;;;;;;23.67;57.55;76456.06;4908631;29;20046;-82
2024/04/07 12:38:45;;;;;;;0.20;0.20;;;;;;;24.27;55.51;76521.50;4912184;29;20150;-82
2024/04/07 12:41:10;;;;;;;0.20;0.20;;;;;;;24.11;54.84;76507.88;4904044;29;20031;-83
2024/04/07 12:43:36;;;;;;;0.20;0.20;;;;;;;23.52;57.52;76436.34;4909071;29;20023;-82
2024/04/07 12:46:02;;;;;;;0.20;0.20;;;;;;;24.21;55.51;76514.88;4917879;29;20521;-82
2024/04/07 12:48:27;;;;;;;0.20;0.20;;;;;;;23.76;56.56;76461.28;4907934;29;20074;-83
2024/04/07 12:50:53;;;;;;;0.10;0.10;;;;;;;24.39;55.33;76538.19;4929324;29;20079;-82
2024/04/07 12:53:18;;;;;;;0.10;0.10;;;;;;;24.12;54.98;76503.41;4931906;29;20099;-80
2024/04/07 12:55:44;;;;;;;0.20;0.20;;;;;;;23.96;55.56;76490.41;4915610;29;20081;-81
2024/04/07 12:58:10;;;;;;;0.10;0.10;;;;;;;24.28;56.64;76526.13;4912610;29;20050;-81
2024/04/07 13:00:35;;;;;;;0.17;0.17;;;;;;;23.48;58.25;76428.72;4928643;29;20031;-82
2024/04/07 13:03:02;;;;;;;0.10;0.10;;;;;;;23.56;58.38;76440.56;4912947;29;20032;-82
2024/04/07 13:05:29;;;;;;;0.10;0.10;;;;;;;23.97;57.97;76486.56;4915911;29;20082;-82
2024/04/07 13:07:54;;;;;;;0.20;0.20;;;;;;;24.22;58.41;76518.31;4918979;29;20600;-82
2024/04/07 13:10:20;;;;;;;0.10;0.10;;;;;;;23.92;58.61;76485.59;4917985;29;20047;-82
2024/04/07 13:28:28;;;;;;;0.10;0.10;;;;;;;23.55;63.51;76442.19;5106965;27;20897;-89
2024/04/07 13:30:57;;;;;;;0.10;0.10;;;;;;;23.74;62.02;76461.66;5089433;28;20040;-92
2024/04/07 13:33:24;;;;;;;0.10;0.10;;;;;;;23.79;62.69;76465.47;5090186;28;20459;-89
2024/04/07 13:35:52;;;;;;;0.15;0.15;;;;;;;24.09;62.33;76502.66;5089892;28;20062;-90
2024/04/07 13:38:18;;;;;;;0.13;0.13;;;;;;;24.25;59.46;76519.69;5089285;28;20031;-91
2024/04/07 13:41:06;;;;;;;0.10;0.10;;;;;;;23.78;60.64;76469.91;5089189;28;20032;-92
2024/04/07 13:43:35;;;;;;;0.20;0.20;;;;;;;23.71;62.62;76460.91;5087346;28;20020;-92
2024/04/07 13:46:00;;;;;;;0.10;0.10;;;;;;;23.44;62.12;76421.09;5086613;28;20055;-90
2024/04/07 13:48:37;;;;;;;0.20;0.20;;;;;;;23.70;62.81;76456.84;5089523;28;20030;-91
2024/04/07 13:51:02;;;;;;;0.10;0.10;;;;;;;23.51;63.70;76435.16;5090060;28;20056;-91
2024/04/07 13:53:28;;;;;;;0.20;0.20;;;;;;;23.57;63.07;76438.34;5084773;28;20078;-92
2024/04/07 13:55:53;;;;;;;0.10;0.10;;;;;;;23.16;64.60;76396.41;5089910;28;20028;-91
2024/04/07 13:58:19;;;;;;;0.20;0.20;;;;;;;23.45;64.81;76427.94;5089069;28;20028;-93
2024/04/07 14:00:46;;;;;;;0.10;0.10;;;;;;;22.41;67.85;76307.88;5089249;28;20038;-93
2024/04/07 14:03:11;;;;;;;0.20;0.20;;;;;;;22.65;68.31;76333.38;5089459;28;20055;-92
2024/04/07 14:05:40;;;;;;;0.20;0.20;;;;;;;22.95;67.38;76368.91;5088978;28;20044;-92
2024/04/07 14:08:07;;;;;;;0.10;0.10;;;;;;;22.89;67.17;76363.91;5088790;28;20020;-91
2024/04/07 14:10:32;;;;;;;0.20;0.20;;;;;;;22.95;67.84;76366.09;5089531;28;20487;-89
2024/04/07 14:12:58;;;;;;;0.10;0.10;;;;;;;22.94;68.20;76364.88;5089099;28;20112;-89
2024/04/07 14:15:24;;;;;;;0.10;0.10;;;;;;;23.12;66.42;76385.97;5091601;28;20020;-92
2024/04/07 14:17:52;;;;;;;0.10;0.10;;;;;;;23.15;66.08;76388.97;5097452;28;20032;-90
2024/04/07 14:20:18;;;;;;;0.15;0.15;;;;;;;23.13;65.88;76392.22;5092108;28;20103;-90
2024/04/07 14:22:46;;;;;;;0.10;0.10;;;;;;;22.84;67.56;76360.69;5088240;28;20182;-90